sensor_id;sensor_type;location;lat;lon;timestamp;pressure;altitude;pressure_sealevel;temperature;humidity
19112;BME280;9688;51.906;8.376;2023-04-30T00:02:30;101423.59;;;9.16;90.45
19112;BME280;9688;51.906;8.376;2023-04-30T00:05:27;101421.09;;;9.08;90.50
19112;BME280;9688;51.906;8.376;2023-04-30T00:08:13;101427.34;;;9.04;90.26
19112;BME280;9688;51.906;8.376;2023-04-30T00:11:01;101430.97;;;8.99;90.73
19112;BME280;9688;51.906;8.376;2023-04-30T00:13:49;101431.91;;;8.94;91.49
19112;BME280;9688;51.906;8.376;2023-04-30T00:16:35;101430.28;;;8.89;91.18
19112;BME280;9688;51.906;8.376;2023-04-30T00:19:55;101422.53;;;8.80;92.07
19112;BME280;9688;51.906;8.376;2023-04-30T00:22:41;101436.63;;;8.77;91.86
19112;BME280;9688;51.906;8.376;2023-04-30T00:25:27;101428.81;;;8.73;91.77
19112;BME280;9688;51.906;8.376;2023-04-30T00:28:16;101428.88;;;8.69;91.82
19112;BME280;9688;51.906;8.376;2023-04-30T00:31:04;101425.41;;;8.66;92.16
19112;BME280;9688;51.906;8.376;2023-04-30T00:33:52;101431.63;;;8.63;91.86
19112;BME280;9688;51.906;8.376;2023-04-30T00:36:38;101430.75;;;8.61;92.42
19112;BME280;9688;51.906;8.376;2023-04-30T00:39:24;101439.56;;;8.60;92.25
19112;BME280;9688;51.906;8.376;2023-04-30T00:42:09;101429.94;;;8.58;92.74
19112;BME280;9688;51.906;8.376;2023-04-30T00:44:57;101435.28;;;8.55;92.64
19112;BME280;9688;51.906;8.376;2023-04-30T00:47:45;101436.22;;;8.51;92.61
19112;BME280;9688;51.906;8.376;2023-04-30T00:50:30;101445.03;;;8.49;92.75
19112;BME280;9688;51.906;8.376;2023-04-30T00:53:17;101451.22;;;8.47;93.32
19112;BME280;9688;51.906;8.376;2023-04-30T00:56:05;101447.75;;;8.43;93.15
19112;BME280;9688;51.906;8.376;2023-04-30T00:58:55;101449.50;;;8.44;93.36
19112;BME280;9688;51.906;8.376;2023-04-30T01:01:41;101459.16;;;8.45;93.65
19112;BME280;9688;51.906;8.376;2023-04-30T01:04:29;101452.13;;;8.44;93.54
19112;BME280;9688;51.906;8.376;2023-04-30T01:07:14;101452.16;;;8.43;93.39
19112;BME280;9688;51.906;8.376;2023-04-30T01:10:08;101456.53;;;8.42;93.65
19112;BME280;9688;51.906;8.376;2023-04-30T01:12:57;101466.25;;;8.40;93.40
19112;BME280;9688;51.906;8.376;2023-04-30T01:15:50;101464.50;;;8.39;94.00
19112;BME280;9688;51.906;8.376;2023-04-30T01:18:45;101467.13;;;8.38;93.63
19112;BME280;9688;51.906;8.376;2023-04-30T01:21:37;101472.41;;;8.38;93.42
19112;BME280;9688;51.906;8.376;2023-04-30T01:24:42;101465.44;;;8.34;93.81
19112;BME280;9688;51.906;8.376;2023-04-30T01:30:55;101468.06;;;8.34;94.20
19112;BME280;9688;51.906;8.376;2023-04-30T01:33:42;101469.78;;;8.36;94.16
19112;BME280;9688;51.906;8.376;2023-04-30T01:36:40;101474.25;;;8.33;94.09
19112;BME280;9688;51.906;8.376;2023-04-30T01:39:42;101475.19;;;8.29;94.26
19112;BME280;9688;51.906;8.376;2023-04-30T01:42:51;101468.22;;;8.26;94.19
19112;BME280;9688;51.906;8.376;2023-04-30T01:45:53;101481.38;;;8.26;94.25
19112;BME280;9688;51.906;8.376;2023-04-30T01:48:49;101477.84;;;8.27;94.35
19112;BME280;9688;51.906;8.376;2023-04-30T01:51:40;101477.03;;;8.23;94.16
19112;BME280;9688;51.906;8.376;2023-04-30T01:54:30;101479.66;;;8.22;94.43
19112;BME280;9688;51.906;8.376;2023-04-30T01:57:27;101463.91;;;8.20;93.76
19112;BME280;9688;51.906;8.376;2023-04-30T02:00:14;101478.84;;;8.17;94.34
19112;BME280;9688;51.906;8.376;2023-04-30T02:03:01;101472.78;;;8.15;94.13
19112;BME280;9688;51.906;8.376;2023-04-30T02:05:49;101473.69;;;8.12;94.31
19112;BME280;9688;51.906;8.376;2023-04-30T02:08:35;101485.94;;;8.12;94.27
19112;BME280;9688;51.906;8.376;2023-04-30T02:11:21;101490.34;;;8.13;94.07
19112;BME280;9688;51.906;8.376;2023-04-30T02:14:09;101492.97;;;8.13;93.75
19112;BME280;9688;51.906;8.376;2023-04-30T02:16:56;101491.22;;;8.12;93.65
19112;BME280;9688;51.906;8.376;2023-04-30T02:19:43;101493.88;;;8.10;93.71
19112;BME280;9688;51.906;8.376;2023-04-30T02:22:31;101490.44;;;8.05;93.99
19112;BME280;9688;51.906;8.376;2023-04-30T02:25:17;101487.00;;;8.00;93.98
19112;BME280;9688;51.906;8.376;2023-04-30T02:28:03;101495.81;;;7.99;94.53
19112;BME280;9688;51.906;8.376;2023-04-30T02:30:49;101496.69;;;7.98;94.07
19112;BME280;9688;51.906;8.376;2023-04-30T02:33:34;101493.22;;;7.96;94.24
19112;BME280;9688;51.906;8.376;2023-04-30T02:36:25;101501.97;;;7.96;94.04
19112;BME280;9688;51.906;8.376;2023-04-30T02:39:11;101498.47;;;7.96;93.46
19112;BME280;9688;51.906;8.376;2023-04-30T02:41:57;101496.72;;;7.95;93.60
19112;BME280;9688;51.906;8.376;2023-04-30T02:44:43;101503.81;;;7.91;93.80
19112;BME280;9688;51.906;8.376;2023-04-30T02:47:30;101494.22;;;7.86;93.75
19112;BME280;9688;51.906;8.376;2023-04-30T02:50:15;101508.28;;;7.83;93.89
19112;BME280;9688;51.906;8.376;2023-04-30T02:53:01;101505.72;;;7.78;93.99
19112;BME280;9688;51.906;8.376;2023-04-30T02:55:48;101506.66;;;7.74;94.55
19112;BME280;9688;51.906;8.376;2023-04-30T02:58:34;101505.78;;;7.72;93.76
19112;BME280;9688;51.906;8.376;2023-04-30T03:01:19;101502.28;;;7.70;93.77
19112;BME280;9688;51.906;8.376;2023-04-30T03:04:05;101498.84;;;7.67;93.88
19112;BME280;9688;51.906;8.376;2023-04-30T03:06:50;101507.69;;;7.63;94.12
19112;BME280;9688;51.906;8.376;2023-04-30T03:09:36;101508.59;;;7.60;94.37
19112;BME280;9688;51.906;8.376;2023-04-30T03:12:23;101506.84;;;7.57;94.10
19112;BME280;9688;51.906;8.376;2023-04-30T03:15:09;101519.16;;;7.57;93.95
19112;BME280;9688;51.906;8.376;2023-04-30T03:17:55;101515.63;;;7.56;94.20
19112;BME280;9688;51.906;8.376;2023-04-30T03:20:41;101524.41;;;7.57;94.11
19112;BME280;9688;51.906;8.376;2023-04-30T03:23:26;101520.09;;;7.51;94.00
19112;BME280;9688;51.906;8.376;2023-04-30T03:26:12;101511.38;;;7.46;94.36
19112;BME280;9688;51.906;8.376;2023-04-30T03:28:59;101516.63;;;7.46;94.12
19112;BME280;9688;51.906;8.376;2023-04-30T03:31:45;101520.13;;;7.45;94.62
19112;BME280;9688;51.906;8.376;2023-04-30T03:34:31;101518.41;;;7.44;94.55
19112;BME280;9688;51.906;8.376;2023-04-30T03:37:17;101519.31;;;7.43;94.16
19112;BME280;9688;51.906;8.376;2023-04-30T03:40:07;101521.94;;;7.43;94.10
19112;BME280;9688;51.906;8.376;2023-04-30T03:42:52;101524.56;;;7.43;94.11
19112;BME280;9688;51.906;8.376;2023-04-30T03:45:39;101532.47;;;7.43;93.91
19112;BME280;9688;51.906;8.376;2023-04-30T03:48:26;101521.03;;;7.43;93.94
19112;BME280;9688;51.906;8.376;2023-04-30T03:51:11;101524.56;;;7.43;93.91
19112;BME280;9688;51.906;8.376;2023-04-30T03:53:57;101515.78;;;7.43;94.01
19112;BME280;9688;51.906;8.376;2023-04-30T03:56:43;101521.94;;;7.43;94.19
19112;BME280;9688;51.906;8.376;2023-04-30T03:59:28;101514.03;;;7.43;93.90
19112;BME280;9688;51.906;8.376;2023-04-30T04:02:15;101521.03;;;7.43;94.44
19112;BME280;9688;51.906;8.376;2023-04-30T04:05:01;101522.81;;;7.42;94.41
19112;BME280;9688;51.906;8.376;2023-04-30T04:07:47;101518.44;;;7.41;93.64
19112;BME280;9688;51.906;8.376;2023-04-30T04:10:33;101521.06;;;7.40;93.63
19112;BME280;9688;51.906;8.376;2023-04-30T04:13:19;101508.81;;;7.37;94.14
19112;BME280;9688;51.906;8.376;2023-04-30T04:16:06;101512.38;;;7.34;93.95
19112;BME280;9688;51.906;8.376;2023-04-30T04:18:53;101515.03;;;7.33;94.64
19112;BME280;9688;51.906;8.376;2023-04-30T04:21:39;101511.53;;;7.31;94.28
19112;BME280;9688;51.906;8.376;2023-04-30T04:24:25;101514.16;;;7.31;94.39
19112;BME280;9688;51.906;8.376;2023-04-30T04:27:11;101508.91;;;7.31;94.72
19112;BME280;9688;51.906;8.376;2023-04-30T04:29:58;101514.13;;;7.34;94.96
19112;BME280;9688;51.906;8.376;2023-04-30T04:32:45;101514.06;;;7.40;94.24
19112;BME280;9688;51.906;8.376;2023-04-30T04:35:36;101512.25;;;7.47;94.66
19112;BME280;9688;51.906;8.376;2023-04-30T04:38:26;101527.91;;;7.56;93.90
19112;BME280;9688;51.906;8.376;2023-04-30T04:41:13;101530.47;;;7.65;93.80
19112;BME280;9688;51.906;8.376;2023-04-30T04:44:00;101527.66;;;7.77;94.00
19112;BME280;9688;51.906;8.376;2023-04-30T04:46:46;101531.97;;;7.85;94.10
19112;BME280;9688;51.906;8.376;2023-04-30T04:49:33;101524.00;;;7.91;93.73
19112;BME280;9688;51.906;8.376;2023-04-30T04:52:20;101532.63;;;8.00;93.51
19112;BME280;9688;51.906;8.376;2023-04-30T04:55:06;101520.28;;;8.67;92.23
19112;BME280;9688;51.906;8.376;2023-04-30T04:57:51;101527.06;;;10.19;88.62
19112;BME280;9688;51.906;8.376;2023-04-30T05:00:38;101532.44;;;11.25;85.55
19112;BME280;9688;51.906;8.376;2023-04-30T05:03:24;101526.59;;;12.37;82.69
19112;BME280;9688;51.906;8.376;2023-04-30T05:06:10;101531.13;;;13.14;80.65
19112;BME280;9688;51.906;8.376;2023-04-30T05:08:57;101532.00;;;14.12;77.11
19112;BME280;9688;51.906;8.376;2023-04-30T05:11:42;101521.03;;;14.87;75.15
19112;BME280;9688;51.906;8.376;2023-04-30T05:14:29;101527.59;;;15.82;71.39
19112;BME280;9688;51.906;8.376;2023-04-30T05:17:16;101521.25;;;16.59;69.01
19112;BME280;9688;51.906;8.376;2023-04-30T05:20:06;101526.41;;;16.07;69.22
19112;BME280;9688;51.906;8.376;2023-04-30T05:22:52;101524.81;;;15.24;71.55
19112;BME280;9688;51.906;8.376;2023-04-30T05:25:40;101513.50;;;15.19;71.01
19112;BME280;9688;51.906;8.376;2023-04-30T05:28:25;101523.78;;;14.86;70.77
19112;BME280;9688;51.906;8.376;2023-04-30T05:31:11;101521.31;;;14.81;70.85
19112;BME280;9688;51.906;8.376;2023-04-30T05:33:57;101522.47;;;14.30;71.33
19112;BME280;9688;51.906;8.376;2023-04-30T05:36:43;101520.28;;;13.71;71.96
19112;BME280;9688;51.906;8.376;2023-04-30T05:39:28;101521.25;;;13.18;73.15
19112;BME280;9688;51.906;8.376;2023-04-30T05:42:19;101517.56;;;12.97;73.67
19112;BME280;9688;51.906;8.376;2023-04-30T05:45:05;101517.47;;;13.00;73.13
19112;BME280;9688;51.906;8.376;2023-04-30T05:47:51;101526.31;;;12.99;73.06
19112;BME280;9688;51.906;8.376;2023-04-30T05:50:37;101530.16;;;12.90;72.72
19112;BME280;9688;51.906;8.376;2023-04-30T05:53:23;101533.28;;;13.03;72.16
19112;BME280;9688;51.906;8.376;2023-04-30T05:56:08;101545.19;;;12.91;71.87
19112;BME280;9688;51.906;8.376;2023-04-30T05:58:55;101543.50;;;12.61;73.38
19112;BME280;9688;51.906;8.376;2023-04-30T06:01:40;101549.75;;;12.32;73.49
19112;BME280;9688;51.906;8.376;2023-04-30T06:04:27;101549.88;;;11.97;74.65
19112;BME280;9688;51.906;8.376;2023-04-30T06:07:13;101555.00;;;11.72;74.86
19112;BME280;9688;51.906;8.376;2023-04-30T06:09:59;101553.22;;;11.73;74.91
19112;BME280;9688;51.906;8.376;2023-04-30T06:12:51;101555.59;;;11.82;75.89
19112;BME280;9688;51.906;8.376;2023-04-30T06:15:38;101551.34;;;12.08;74.32
19112;BME280;9688;51.906;8.376;2023-04-30T06:18:27;101555.25;;;12.24;73.38
19112;BME280;9688;51.906;8.376;2023-04-30T06:21:14;101560.00;;;12.14;74.03
19112;BME280;9688;51.906;8.376;2023-04-30T06:23:59;101555.00;;;12.03;72.93
19112;BME280;9688;51.906;8.376;2023-04-30T06:27:13;101560.06;;;11.80;73.57
19112;BME280;9688;51.906;8.376;2023-04-30T06:29:58;101566.69;;;11.64;73.84
19112;BME280;9688;51.906;8.376;2023-04-30T06:32:48;101561.94;;;11.44;73.82
19112;BME280;9688;51.906;8.376;2023-04-30T06:35:33;101561.34;;;11.34;74.59
19112;BME280;9688;51.906;8.376;2023-04-30T06:38:25;101564.19;;;11.26;75.08
19112;BME280;9688;51.906;8.376;2023-04-30T06:41:11;101567.38;;;11.39;74.30
19112;BME280;9688;51.906;8.376;2023-04-30T06:43:57;101567.50;;;11.67;74.69
19112;BME280;9688;51.906;8.376;2023-04-30T06:46:43;101560.78;;;12.16;73.61
19112;BME280;9688;51.906;8.376;2023-04-30T06:49:31;101567.56;;;12.55;72.63
19112;BME280;9688;51.906;8.376;2023-04-30T06:52:20;101572.06;;;12.81;71.78
19112;BME280;9688;51.906;8.376;2023-04-30T06:55:07;101562.31;;;13.08;71.38
19112;BME280;9688;51.906;8.376;2023-04-30T06:57:52;101558.84;;;13.32;70.78
19112;BME280;9688;51.906;8.376;2023-04-30T07:00:39;101561.84;;;13.48;69.91
19112;BME280;9688;51.906;8.376;2023-04-30T07:03:27;101565.94;;;13.57;69.27
19112;BME280;9688;51.906;8.376;2023-04-30T07:06:14;101557.00;;;13.59;68.78
19112;BME280;9688;51.906;8.376;2023-04-30T07:09:01;101564.50;;;13.48;68.98
19112;BME280;9688;51.906;8.376;2023-04-30T07:11:46;101574.09;;;13.52;68.40
19112;BME280;9688;51.906;8.376;2023-04-30T07:14:32;101563.16;;;13.61;67.50
19112;BME280;9688;51.906;8.376;2023-04-30T07:17:19;101569.16;;;13.67;67.14
19112;BME280;9688;51.906;8.376;2023-04-30T07:20:08;101564.16;;;13.57;66.92
19112;BME280;9688;51.906;8.376;2023-04-30T07:22:56;101566.28;;;13.48;67.37
19112;BME280;9688;51.906;8.376;2023-04-30T07:25:43;101571.81;;;13.42;67.46
19112;BME280;9688;51.906;8.376;2023-04-30T07:28:28;101564.47;;;13.50;67.72
19112;BME280;9688;51.906;8.376;2023-04-30T07:31:14;101572.69;;;13.67;67.53
19112;BME280;9688;51.906;8.376;2023-04-30T07:34:00;101565.41;;;13.96;67.06
19112;BME280;9688;51.906;8.376;2023-04-30T07:36:46;101568.66;;;14.04;67.11
19112;BME280;9688;51.906;8.376;2023-04-30T07:39:33;101569.31;;;14.11;66.62
19112;BME280;9688;51.906;8.376;2023-04-30T07:42:20;101571.50;;;14.23;66.32
19112;BME280;9688;51.906;8.376;2023-04-30T07:45:07;101567.75;;;14.50;65.19
19112;BME280;9688;51.906;8.376;2023-04-30T07:48:18;101560.22;;;15.06;64.20
19112;BME280;9688;51.906;8.376;2023-04-30T07:51:04;101557.03;;;15.38;63.21
19112;BME280;9688;51.906;8.376;2023-04-30T07:53:50;101558.16;;;15.74;61.88
19112;BME280;9688;51.906;8.376;2023-04-30T07:56:38;101560.81;;;15.94;61.64
19112;BME280;9688;51.906;8.376;2023-04-30T07:59:26;101557.91;;;15.80;61.29
19112;BME280;9688;51.906;8.376;2023-04-30T08:02:12;101556.44;;;15.73;61.70
19112;BME280;9688;51.906;8.376;2023-04-30T08:05:00;101564.31;;;15.76;61.22
19112;BME280;9688;51.906;8.376;2023-04-30T08:07:45;101562.63;;;15.73;61.26
19112;BME280;9688;51.906;8.376;2023-04-30T08:10:31;101562.53;;;15.54;61.71
19112;BME280;9688;51.906;8.376;2023-04-30T08:13:22;101557.50;;;15.48;61.07
19112;BME280;9688;51.906;8.376;2023-04-30T08:16:08;101557.78;;;15.42;61.44
19112;BME280;9688;51.906;8.376;2023-04-30T08:18:59;101561.28;;;15.43;60.87
19112;BME280;9688;51.906;8.376;2023-04-30T08:21:49;101558.72;;;15.41;61.06
19112;BME280;9688;51.906;8.376;2023-04-30T08:24:36;101561.06;;;15.68;60.34
19112;BME280;9688;51.906;8.376;2023-04-30T08:27:23;101562.09;;;16.04;58.60
19112;BME280;9688;51.906;8.376;2023-04-30T08:30:10;101555.97;;;16.40;58.37
19112;BME280;9688;51.906;8.376;2023-04-30T08:32:56;101558.03;;;16.71;57.04
19112;BME280;9688;51.906;8.376;2023-04-30T08:35:44;101557.16;;;16.90;55.69
19112;BME280;9688;51.906;8.376;2023-04-30T08:38:30;101559.44;;;16.80;55.53
19112;BME280;9688;51.906;8.376;2023-04-30T08:41:20;101551.31;;;16.82;54.73
19112;BME280;9688;51.906;8.376;2023-04-30T08:44:10;101559.13;;;17.04;54.74
19112;BME280;9688;51.906;8.376;2023-04-30T08:46:58;101550.16;;;16.87;55.25
19112;BME280;9688;51.906;8.376;2023-04-30T08:49:47;101554.25;;;16.77;55.24
19112;BME280;9688;51.906;8.376;2023-04-30T08:52:36;101557.31;;;16.68;55.68
19112;BME280;9688;51.906;8.376;2023-04-30T08:55:25;101547.75;;;16.45;55.48
19112;BME280;9688;51.906;8.376;2023-04-30T08:58:11;101543.56;;;16.39;55.45
19112;BME280;9688;51.906;8.376;2023-04-30T09:00:57;101551.03;;;16.33;55.49
19112;BME280;9688;51.906;8.376;2023-04-30T09:03:45;101549.13;;;16.35;54.61
19112;BME280;9688;51.906;8.376;2023-04-30T09:06:30;101548.75;;;16.42;54.49
19112;BME280;9688;51.906;8.376;2023-04-30T09:09:18;101552.44;;;16.40;53.98
19112;BME280;9688;51.906;8.376;2023-04-30T09:12:11;101545.44;;;16.18;54.27
19112;BME280;9688;51.906;8.376;2023-04-30T09:14:58;101547.00;;;15.84;54.54
19112;BME280;9688;51.906;8.376;2023-04-30T09:17:47;101539.97;;;15.83;55.02
19112;BME280;9688;51.906;8.376;2023-04-30T09:20:35;101539.88;;;15.85;54.84
19112;BME280;9688;51.906;8.376;2023-04-30T09:23:21;101545.22;;;15.85;54.96
19112;BME280;9688;51.906;8.376;2023-04-30T09:26:18;101542.19;;;15.93;54.88
19112;BME280;9688;51.906;8.376;2023-04-30T09:29:06;101543.94;;;15.94;55.42
19112;BME280;9688;51.906;8.376;2023-04-30T09:32:06;101538.66;;;15.92;55.47
19112;BME280;9688;51.906;8.376;2023-04-30T09:34:54;101543.81;;;15.97;55.07
19112;BME280;9688;51.906;8.376;2023-04-30T09:37:41;101542.06;;;15.96;55.05
19112;BME280;9688;51.906;8.376;2023-04-30T09:40:37;101542.16;;;15.94;54.67
19112;BME280;9688;51.906;8.376;2023-04-30T09:43:27;101538.16;;;15.84;54.28
19112;BME280;9688;51.906;8.376;2023-04-30T09:49:28;101545.72;;;15.74;54.45
19112;BME280;9688;51.906;8.376;2023-04-30T09:52:14;101530.94;;;15.66;54.98
19112;BME280;9688;51.906;8.376;2023-04-30T09:55:04;101528.03;;;15.51;55.40
19112;BME280;9688;51.906;8.376;2023-04-30T09:57:52;101526.00;;;15.58;55.29
19112;BME280;9688;51.906;8.376;2023-04-30T10:00:39;101522.94;;;15.66;55.33
19112;BME280;9688;51.906;8.376;2023-04-30T10:03:25;101527.31;;;15.68;55.27
19112;BME280;9688;51.906;8.376;2023-04-30T10:06:12;101516.25;;;15.77;55.16
19112;BME280;9688;51.906;8.376;2023-04-30T10:09:02;101528.63;;;15.78;54.96
19112;BME280;9688;51.906;8.376;2023-04-30T10:12:21;101516.25;;;15.77;54.63
19112;BME280;9688;51.906;8.376;2023-04-30T10:15:12;101516.25;;;15.77;55.22
19112;BME280;9688;51.906;8.376;2023-04-30T10:18:01;101515.16;;;15.81;54.85
19112;BME280;9688;51.906;8.376;2023-04-30T10:20:52;101506.00;;;15.87;54.87
19112;BME280;9688;51.906;8.376;2023-04-30T10:23:39;101522.47;;;15.97;54.61
19112;BME280;9688;51.906;8.376;2023-04-30T10:26:29;101515.19;;;16.00;54.39
19112;BME280;9688;51.906;8.376;2023-04-30T10:29:16;101508.63;;;16.08;54.30
19112;BME280;9688;51.906;8.376;2023-04-30T10:32:04;101498.59;;;16.13;54.37
19112;BME280;9688;51.906;8.376;2023-04-30T10:35:11;101510.28;;;16.10;54.15
19112;BME280;9688;51.906;8.376;2023-04-30T10:38:20;101496.22;;;16.06;54.61
19112;BME280;9688;51.906;8.376;2023-04-30T10:41:26;101489.38;;;16.01;54.56
19112;BME280;9688;51.906;8.376;2023-04-30T10:44:33;101488.88;;;15.93;55.00
19112;BME280;9688;51.906;8.376;2023-04-30T10:47:29;101485.91;;;15.99;54.93
19112;BME280;9688;51.906;8.376;2023-04-30T10:50:24;101484.84;;;16.03;55.36
19112;BME280;9688;51.906;8.376;2023-04-30T10:53:16;101484.84;;;16.03;54.96
19112;BME280;9688;51.906;8.376;2023-04-30T10:56:03;101471.63;;;16.19;54.92
19112;BME280;9688;51.906;8.376;2023-04-30T10:58:51;101473.25;;;16.40;54.61
19112;BME280;9688;51.906;8.376;2023-04-30T11:02:04;101465.72;;;16.48;55.15
19112;BME280;9688;51.906;8.376;2023-04-30T11:05:09;101473.72;;;16.48;54.57
19112;BME280;9688;51.906;8.376;2023-04-30T11:07:56;101461.06;;;16.35;55.15
19112;BME280;9688;51.906;8.376;2023-04-30T11:10:56;101460.78;;;16.41;54.95
19112;BME280;9688;51.906;8.376;2023-04-30T11:13:44;101455.03;;;16.48;54.65
19112;BME280;9688;51.906;8.376;2023-04-30T11:16:33;101454.28;;;16.46;54.91
19112;BME280;9688;51.906;8.376;2023-04-30T11:19:21;101456.16;;;16.44;54.80
19112;BME280;9688;51.906;8.376;2023-04-30T11:22:22;101453.00;;;16.54;54.29
19112;BME280;9688;51.906;8.376;2023-04-30T11:25:38;101439.44;;;16.58;54.04
19112;BME280;9688;51.906;8.376;2023-04-30T11:28:25;101451.25;;;16.71;53.81
19112;BME280;9688;51.906;8.376;2023-04-30T11:31:12;101455.44;;;16.77;53.39
19112;BME280;9688;51.906;8.376;2023-04-30T11:33:58;101444.97;;;16.90;52.91
19112;BME280;9688;51.906;8.376;2023-04-30T11:36:51;101447.56;;;17.09;52.48
19112;BME280;9688;51.906;8.376;2023-04-30T11:39:39;101437.88;;;17.06;52.09
19112;BME280;9688;51.906;8.376;2023-04-30T11:42:37;101437.41;;;17.15;51.81
19112;BME280;9688;51.906;8.376;2023-04-30T11:45:25;101434.13;;;17.10;50.78
19112;BME280;9688;51.906;8.376;2023-04-30T11:48:16;101439.47;;;17.10;50.65
19112;BME280;9688;51.906;8.376;2023-04-30T11:51:27;101428.31;;;17.02;49.82
19112;BME280;9688;51.906;8.376;2023-04-30T11:54:16;101422.34;;;16.97;49.64
19112;BME280;9688;51.906;8.376;2023-04-30T11:57:11;101425.47;;;17.05;49.66
19112;BME280;9688;51.906;8.376;2023-04-30T12:00:15;101414.91;;;17.20;48.94
19112;BME280;9688;51.906;8.376;2023-04-30T12:03:26;101408.16;;;17.30;49.03
19112;BME280;9688;51.906;8.376;2023-04-30T12:06:22;101408.22;;;17.28;48.35
19112;BME280;9688;51.906;8.376;2023-04-30T12:09:09;101412.81;;;17.42;48.49
19112;BME280;9688;51.906;8.376;2023-04-30T12:11:57;101406.09;;;17.51;48.10
19112;BME280;9688;51.906;8.376;2023-04-30T12:15:15;101404.59;;;17.63;47.39
19112;BME280;9688;51.906;8.376;2023-04-30T12:18:10;101396.56;;;17.63;47.49
19112;BME280;9688;51.906;8.376;2023-04-30T12:20:57;101393.13;;;17.92;47.13
19112;BME280;9688;51.906;8.376;2023-04-30T12:23:43;101400.38;;;18.06;47.08
19112;BME280;9688;51.906;8.376;2023-04-30T12:26:35;101393.03;;;18.10;46.31
19112;BME280;9688;51.906;8.376;2023-04-30T12:29:26;101390.81;;;17.86;45.85
19112;BME280;9688;51.906;8.376;2023-04-30T12:32:13;101388.69;;;17.75;46.61
19112;BME280;9688;51.906;8.376;2023-04-30T12:35:01;101381.63;;;17.74;46.63
19112;BME280;9688;51.906;8.376;2023-04-30T12:37:50;101379.38;;;17.67;46.38
19112;BME280;9688;51.906;8.376;2023-04-30T12:40:47;101381.81;;;17.71;47.05
19112;BME280;9688;51.906;8.376;2023-04-30T12:43:33;101381.25;;;17.82;46.96
19112;BME280;9688;51.906;8.376;2023-04-30T12:46:27;101384.78;;;17.82;46.43
19112;BME280;9688;51.906;8.376;2023-04-30T12:49:29;101379.38;;;17.67;46.26
19112;BME280;9688;51.906;8.376;2023-04-30T12:52:23;101376.44;;;17.55;46.54
19112;BME280;9688;51.906;8.376;2023-04-30T12:55:35;101372.31;;;17.50;46.97
19112;BME280;9688;51.906;8.376;2023-04-30T12:58:45;101370.94;;;17.58;47.11
19112;BME280;9688;51.906;8.376;2023-04-30T13:01:43;101358.34;;;17.60;46.48
19112;BME280;9688;51.906;8.376;2023-04-30T13:04:29;101354.81;;;17.60;47.01
19112;BME280;9688;51.906;8.376;2023-04-30T13:07:16;101355.75;;;17.59;46.48
19112;BME280;9688;51.906;8.376;2023-04-30T13:10:04;101366.28;;;17.46;47.27
19112;BME280;9688;51.906;8.376;2023-04-30T13:12:52;101344.88;;;17.46;47.29
19112;BME280;9688;51.906;8.376;2023-04-30T13:15:38;101342.28;;;17.60;47.24
19112;BME280;9688;51.906;8.376;2023-04-30T13:18:27;101342.44;;;17.73;46.83
19112;BME280;9688;51.906;8.376;2023-04-30T13:21:26;101346.63;;;17.79;46.44
19112;BME280;9688;51.906;8.376;2023-04-30T13:24:12;101340.06;;;17.69;46.60
19112;BME280;9688;51.906;8.376;2023-04-30T13:27:02;101336.94;;;17.60;46.55
19112;BME280;9688;51.906;8.376;2023-04-30T13:29:48;101342.13;;;17.64;46.30
19112;BME280;9688;51.906;8.376;2023-04-30T13:32:34;101339.63;;;17.60;46.88
19112;BME280;9688;51.906;8.376;2023-04-30T13:35:23;101327.09;;;17.77;46.61
19112;BME280;9688;51.906;8.376;2023-04-30T13:38:09;101332.22;;;17.81;46.45
19112;BME280;9688;51.906;8.376;2023-04-30T13:40:55;101329.97;;;17.74;46.69
19112;BME280;9688;51.906;8.376;2023-04-30T13:43:41;101317.88;;;17.67;46.96
19112;BME280;9688;51.906;8.376;2023-04-30T13:46:32;101325.38;;;17.76;46.64
19112;BME280;9688;51.906;8.376;2023-04-30T13:49:17;101329.34;;;17.84;46.03
19112;BME280;9688;51.906;8.376;2023-04-30T13:52:05;101319.16;;;17.75;46.00
19112;BME280;9688;51.906;8.376;2023-04-30T13:54:54;101324.09;;;17.67;46.49
19112;BME280;9688;51.906;8.376;2023-04-30T13:57:40;101319.16;;;17.75;46.07
19112;BME280;9688;51.906;8.376;2023-04-30T14:00:25;101320.38;;;17.70;46.00
19112;BME280;9688;51.906;8.376;2023-04-30T14:03:11;101321.34;;;17.69;45.57
19112;BME280;9688;51.906;8.376;2023-04-30T14:05:59;101313.25;;;17.54;45.67
19112;BME280;9688;51.906;8.376;2023-04-30T14:08:58;101311.84;;;17.63;46.28
19112;BME280;9688;51.906;8.376;2023-04-30T14:11:48;101307.09;;;17.84;45.29
19112;BME280;9688;51.906;8.376;2023-04-30T14:14:34;101313.72;;;17.93;44.87
19112;BME280;9688;51.906;8.376;2023-04-30T14:17:25;101298.03;;;17.87;45.25
19112;BME280;9688;51.906;8.376;2023-04-30T14:20:13;101307.34;;;17.95;44.94
19112;BME280;9688;51.906;8.376;2023-04-30T14:22:59;101301.56;;;17.87;45.11
19112;BME280;9688;51.906;8.376;2023-04-30T14:25:57;101297.28;;;17.69;44.92
19112;BME280;9688;51.906;8.376;2023-04-30T14:28:47;101296.06;;;17.58;45.55
19112;BME280;9688;51.906;8.376;2023-04-30T14:31:36;101292.34;;;17.61;45.71
19112;BME280;9688;51.906;8.376;2023-04-30T14:34:24;101284.75;;;17.69;45.43
19112;BME280;9688;51.906;8.376;2023-04-30T14:37:10;101286.91;;;17.78;45.23
19112;BME280;9688;51.906;8.376;2023-04-30T14:39:56;101291.22;;;17.81;44.83
19112;BME280;9688;51.906;8.376;2023-04-30T14:43:10;101280.88;;;17.75;45.59
19112;BME280;9688;51.906;8.376;2023-04-30T14:45:56;101278.47;;;17.86;44.96
19112;BME280;9688;51.906;8.376;2023-04-30T14:48:41;101282.00;;;17.87;44.68
19112;BME280;9688;51.906;8.376;2023-04-30T14:51:29;101271.97;;;17.90;44.94
19112;BME280;9688;51.906;8.376;2023-04-30T14:54:16;101275.47;;;18.06;44.72
19112;BME280;9688;51.906;8.376;2023-04-30T14:57:03;101268.22;;;18.09;44.30
19112;BME280;9688;51.906;8.376;2023-04-30T14:59:52;101272.25;;;18.16;44.67
19112;BME280;9688;51.906;8.376;2023-04-30T15:02:40;101258.38;;;18.23;44.20
19112;BME280;9688;51.906;8.376;2023-04-30T15:05:27;101263.09;;;18.34;43.74
19112;BME280;9688;51.906;8.376;2023-04-30T15:08:13;101268.19;;;18.39;43.88